sensor_id;sensor_type;location;lat;lon;timestamp;P1;durP1;ratioP1;P2;durP2;ratioP2
15096;SDS011;7649;52.084;7.478;2022-10-16T00:01:43;4.57;;;3.37;;
15096;SDS011;7649;52.084;7.478;2022-10-16T00:04:11;4.50;;;4.10;;
15096;SDS011;7649;52.084;7.478;2022-10-16T00:06:40;6.83;;;4.90;;
15096;SDS011;7649;52.084;7.478;2022-10-16T00:09:08;9.50;;;4.40;;
15096;SDS011;7649;52.084;7.478;2022-10-16T00:11:37;7.40;;;4.70;;
15096;SDS011;7649;52.084;7.478;2022-10-16T00:14:08;5.33;;;4.53;;
15096;SDS011;7649;52.084;7.478;2022-10-16T00:16:37;6.53;;;4.77;;
15096;SDS011;7649;52.084;7.478;2022-10-16T00:19:05;7.93;;;4.60;;
15096;SDS011;7649;52.084;7.478;2022-10-16T00:21:33;9.27;;;5.83;;
15096;SDS011;7649;52.084;7.478;2022-10-16T00:24:02;8.40;;;5.40;;
15096;SDS011;7649;52.084;7.478;2022-10-16T00:26:32;7.20;;;5.60;;
15096;SDS011;7649;52.084;7.478;2022-10-16T00:29:00;9.93;;;6.00;;
15096;SDS011;7649;52.084;7.478;2022-10-16T00:31:30;8.80;;;5.87;;
15096;SDS011;7649;52.084;7.478;2022-10-16T00:33:58;6.60;;;5.90;;
15096;SDS011;7649;52.084;7.478;2022-10-16T00:36:27;9.00;;;6.03;;
15096;SDS011;7649;52.084;7.478;2022-10-16T00:38:56;8.73;;;6.60;;
15096;SDS011;7649;52.084;7.478;2022-10-16T00:41:31;7.50;;;6.57;;
15096;SDS011;7649;52.084;7.478;2022-10-16T00:44:00;9.00;;;6.90;;
15096;SDS011;7649;52.084;7.478;2022-10-16T00:46:31;9.37;;;7.17;;
15096;SDS011;7649;52.084;7.478;2022-10-16T00:49:01;9.67;;;7.03;;
15096;SDS011;7649;52.084;7.478;2022-10-16T00:51:31;11.30;;;7.50;;
15096;SDS011;7649;52.084;7.478;2022-10-16T00:54:00;8.83;;;7.10;;
15096;SDS011;7649;52.084;7.478;2022-10-16T00:56:30;8.93;;;7.37;;
15096;SDS011;7649;52.084;7.478;2022-10-16T00:58:58;10.53;;;7.40;;
15096;SDS011;7649;52.084;7.478;2022-10-16T01:01:27;9.50;;;7.10;;
15096;SDS011;7649;52.084;7.478;2022-10-16T01:03:57;9.33;;;8.17;;
15096;SDS011;7649;52.084;7.478;2022-10-16T01:06:27;10.73;;;7.87;;
15096;SDS011;7649;52.084;7.478;2022-10-16T01:09:13;9.40;;;8.13;;
15096;SDS011;7649;52.084;7.478;2022-10-16T01:11:45;11.43;;;8.03;;
15096;SDS011;7649;52.084;7.478;2022-10-16T01:14:19;9.27;;;7.60;;
15096;SDS011;7649;52.084;7.478;2022-10-16T01:16:51;9.73;;;8.00;;
15096;SDS011;7649;52.084;7.478;2022-10-16T01:19:25;12.13;;;8.60;;
15096;SDS011;7649;52.084;7.478;2022-10-16T01:21:54;11.53;;;8.00;;
15096;SDS011;7649;52.084;7.478;2022-10-16T01:24:27;12.77;;;8.30;;
15096;SDS011;7649;52.084;7.478;2022-10-16T01:29:50;9.90;;;8.43;;
15096;SDS011;7649;52.084;7.478;2022-10-16T01:32:23;9.77;;;8.03;;
15096;SDS011;7649;52.084;7.478;2022-10-16T01:34:52;9.70;;;8.23;;
15096;SDS011;7649;52.084;7.478;2022-10-16T01:37:25;11.77;;;7.93;;
15096;SDS011;7649;52.084;7.478;2022-10-16T01:39:55;10.57;;;8.27;;
15096;SDS011;7649;52.084;7.478;2022-10-16T01:42:27;12.37;;;8.47;;
15096;SDS011;7649;52.084;7.478;2022-10-16T01:44:59;11.23;;;8.57;;
15096;SDS011;7649;52.084;7.478;2022-10-16T01:47:28;9.60;;;8.63;;
15096;SDS011;7649;52.084;7.478;2022-10-16T01:49:57;11.07;;;8.40;;
15096;SDS011;7649;52.084;7.478;2022-10-16T01:52:27;15.20;;;8.53;;
15096;SDS011;7649;52.084;7.478;2022-10-16T01:54:57;10.40;;;8.60;;
15096;SDS011;7649;52.084;7.478;2022-10-16T01:57:26;10.30;;;7.80;;
15096;SDS011;7649;52.084;7.478;2022-10-16T01:59:55;10.67;;;8.37;;
15096;SDS011;7649;52.084;7.478;2022-10-16T02:02:26;9.70;;;8.70;;
15096;SDS011;7649;52.084;7.478;2022-10-16T02:04:56;9.77;;;8.17;;
15096;SDS011;7649;52.084;7.478;2022-10-16T02:07:26;9.03;;;8.07;;
15096;SDS011;7649;52.084;7.478;2022-10-16T02:09:54;13.53;;;8.57;;
15096;SDS011;7649;52.084;7.478;2022-10-16T02:12:23;9.23;;;8.23;;
15096;SDS011;7649;52.084;7.478;2022-10-16T02:14:54;8.60;;;7.70;;
15096;SDS011;7649;52.084;7.478;2022-10-16T02:17:22;10.23;;;8.40;;
15096;SDS011;7649;52.084;7.478;2022-10-16T02:19:52;9.20;;;8.20;;
15096;SDS011;7649;52.084;7.478;2022-10-16T02:22:22;10.47;;;8.23;;
15096;SDS011;7649;52.084;7.478;2022-10-16T02:24:54;12.57;;;8.70;;
15096;SDS011;7649;52.084;7.478;2022-10-16T02:27:25;9.67;;;7.97;;
15096;SDS011;7649;52.084;7.478;2022-10-16T02:29:55;11.47;;;8.80;;
15096;SDS011;7649;52.084;7.478;2022-10-16T02:32:27;9.90;;;7.83;;
15096;SDS011;7649;52.084;7.478;2022-10-16T02:34:58;11.97;;;9.17;;
15096;SDS011;7649;52.084;7.478;2022-10-16T02:37:27;11.33;;;8.50;;
15096;SDS011;7649;52.084;7.478;2022-10-16T02:39:56;11.20;;;7.67;;
15096;SDS011;7649;52.084;7.478;2022-10-16T02:42:29;9.47;;;8.10;;
15096;SDS011;7649;52.084;7.478;2022-10-16T02:45:00;12.33;;;8.77;;
15096;SDS011;7649;52.084;7.478;2022-10-16T02:47:28;9.23;;;8.10;;
15096;SDS011;7649;52.084;7.478;2022-10-16T02:49:58;9.50;;;8.17;;
15096;SDS011;7649;52.084;7.478;2022-10-16T02:52:26;12.80;;;8.70;;
15096;SDS011;7649;52.084;7.478;2022-10-16T02:54:55;13.87;;;8.60;;
15096;SDS011;7649;52.084;7.478;2022-10-16T02:57:23;9.07;;;8.13;;
15096;SDS011;7649;52.084;7.478;2022-10-16T02:59:52;11.13;;;8.50;;
15096;SDS011;7649;52.084;7.478;2022-10-16T03:02:20;10.77;;;8.80;;
15096;SDS011;7649;52.084;7.478;2022-10-16T03:04:48;10.60;;;8.43;;
15096;SDS011;7649;52.084;7.478;2022-10-16T03:07:18;10.87;;;8.80;;
15096;SDS011;7649;52.084;7.478;2022-10-16T03:09:46;10.40;;;8.73;;
15096;SDS011;7649;52.084;7.478;2022-10-16T03:12:14;9.50;;;8.50;;
15096;SDS011;7649;52.084;7.478;2022-10-16T03:14:42;11.93;;;8.47;;
15096;SDS011;7649;52.084;7.478;2022-10-16T03:17:10;10.87;;;8.23;;
15096;SDS011;7649;52.084;7.478;2022-10-16T03:19:39;9.53;;;7.80;;
15096;SDS011;7649;52.084;7.478;2022-10-16T03:22:07;9.03;;;7.63;;
15096;SDS011;7649;52.084;7.478;2022-10-16T03:24:37;9.00;;;8.10;;
15096;SDS011;7649;52.084;7.478;2022-10-16T03:27:05;8.90;;;8.10;;
15096;SDS011;7649;52.084;7.478;2022-10-16T03:29:33;8.43;;;7.63;;
15096;SDS011;7649;52.084;7.478;2022-10-16T03:32:01;9.03;;;7.97;;
15096;SDS011;7649;52.084;7.478;2022-10-16T03:34:29;9.57;;;8.57;;
15096;SDS011;7649;52.084;7.478;2022-10-16T03:36:58;12.60;;;8.57;;
15096;SDS011;7649;52.084;7.478;2022-10-16T03:39:26;11.70;;;8.13;;
15096;SDS011;7649;52.084;7.478;2022-10-16T03:41:55;8.50;;;7.70;;
15096;SDS011;7649;52.084;7.478;2022-10-16T03:44:24;8.47;;;7.67;;
15096;SDS011;7649;52.084;7.478;2022-10-16T03:46:52;10.57;;;7.30;;
15096;SDS011;7649;52.084;7.478;2022-10-16T03:49:20;11.90;;;7.30;;
15096;SDS011;7649;52.084;7.478;2022-10-16T03:51:48;8.50;;;7.70;;
15096;SDS011;7649;52.084;7.478;2022-10-16T03:54:16;9.77;;;6.60;;
15096;SDS011;7649;52.084;7.478;2022-10-16T03:56:45;7.73;;;6.70;;
15096;SDS011;7649;52.084;7.478;2022-10-16T03:59:14;8.30;;;7.00;;
15096;SDS011;7649;52.084;7.478;2022-10-16T04:01:43;9.13;;;6.80;;
15096;SDS011;7649;52.084;7.478;2022-10-16T04:04:11;7.30;;;6.57;;
15096;SDS011;7649;52.084;7.478;2022-10-16T04:06:39;8.90;;;7.07;;
15096;SDS011;7649;52.084;7.478;2022-10-16T04:09:07;9.27;;;7.00;;
15096;SDS011;7649;52.084;7.478;2022-10-16T04:11:35;7.67;;;6.97;;
15096;SDS011;7649;52.084;7.478;2022-10-16T04:14:04;7.30;;;6.60;;
15096;SDS011;7649;52.084;7.478;2022-10-16T04:16:33;7.77;;;6.80;;
15096;SDS011;7649;52.084;7.478;2022-10-16T04:19:02;9.13;;;6.73;;
15096;SDS011;7649;52.084;7.478;2022-10-16T04:21:30;8.07;;;6.70;;
15096;SDS011;7649;52.084;7.478;2022-10-16T04:23:58;7.63;;;6.20;;
15096;SDS011;7649;52.084;7.478;2022-10-16T04:26:27;6.67;;;5.50;;
15096;SDS011;7649;52.084;7.478;2022-10-16T04:28:55;6.13;;;5.53;;
15096;SDS011;7649;52.084;7.478;2022-10-16T04:31:23;8.33;;;5.57;;
15096;SDS011;7649;52.084;7.478;2022-10-16T04:33:53;8.53;;;5.80;;
15096;SDS011;7649;52.084;7.478;2022-10-16T04:36:21;6.07;;;5.20;;
15096;SDS011;7649;52.084;7.478;2022-10-16T04:38:54;6.90;;;5.27;;
15096;SDS011;7649;52.084;7.478;2022-10-16T04:41:22;10.87;;;4.83;;
15096;SDS011;7649;52.084;7.478;2022-10-16T04:43:50;6.77;;;5.13;;
15096;SDS011;7649;52.084;7.478;2022-10-16T04:46:19;5.17;;;4.33;;
15096;SDS011;7649;52.084;7.478;2022-10-16T04:48:47;6.33;;;4.70;;
15096;SDS011;7649;52.084;7.478;2022-10-16T04:51:16;4.77;;;4.30;;
15096;SDS011;7649;52.084;7.478;2022-10-16T04:53:48;4.93;;;4.20;;
15096;SDS011;7649;52.084;7.478;2022-10-16T04:56:16;4.77;;;4.27;;
15096;SDS011;7649;52.084;7.478;2022-10-16T04:58:45;4.70;;;4.20;;
15096;SDS011;7649;52.084;7.478;2022-10-16T05:01:13;5.80;;;3.77;;
15096;SDS011;7649;52.084;7.478;2022-10-16T05:03:41;4.63;;;4.10;;
15096;SDS011;7649;52.084;7.478;2022-10-16T05:06:09;6.93;;;4.37;;
15096;SDS011;7649;52.084;7.478;2022-10-16T05:08:39;4.43;;;3.70;;
15096;SDS011;7649;52.084;7.478;2022-10-16T05:11:07;4.40;;;3.80;;
15096;SDS011;7649;52.084;7.478;2022-10-16T05:13:35;9.80;;;4.30;;
15096;SDS011;7649;52.084;7.478;2022-10-16T05:16:03;4.00;;;3.70;;
15096;SDS011;7649;52.084;7.478;2022-10-16T05:18:32;5.10;;;4.20;;
15096;SDS011;7649;52.084;7.478;2022-10-16T05:21:00;4.67;;;3.80;;
15096;SDS011;7649;52.084;7.478;2022-10-16T05:23:28;4.27;;;3.50;;
15096;SDS011;7649;52.084;7.478;2022-10-16T05:25:58;4.47;;;3.70;;
15096;SDS011;7649;52.084;7.478;2022-10-16T05:28:26;4.77;;;3.80;;
15096;SDS011;7649;52.084;7.478;2022-10-16T05:30:55;5.57;;;3.80;;
15096;SDS011;7649;52.084;7.478;2022-10-16T05:33:23;4.43;;;3.70;;
15096;SDS011;7649;52.084;7.478;2022-10-16T05:35:52;5.93;;;4.17;;
15096;SDS011;7649;52.084;7.478;2022-10-16T05:38:20;4.40;;;3.43;;
15096;SDS011;7649;52.084;7.478;2022-10-16T05:40:51;4.13;;;3.40;;
15096;SDS011;7649;52.084;7.478;2022-10-16T05:43:21;4.87;;;3.80;;
15096;SDS011;7649;52.084;7.478;2022-10-16T05:45:55;4.20;;;3.30;;
15096;SDS011;7649;52.084;7.478;2022-10-16T05:48:24;5.63;;;3.17;;
15096;SDS011;7649;52.084;7.478;2022-10-16T05:50:58;4.63;;;3.47;;
15096;SDS011;7649;52.084;7.478;2022-10-16T05:53:27;4.83;;;3.33;;
15096;SDS011;7649;52.084;7.478;2022-10-16T05:55:55;3.60;;;3.30;;
15096;SDS011;7649;52.084;7.478;2022-10-16T05:58:25;7.90;;;3.40;;
15096;SDS011;7649;52.084;7.478;2022-10-16T06:00:56;3.73;;;3.30;;
15096;SDS011;7649;52.084;7.478;2022-10-16T06:03:25;3.30;;;3.00;;
15096;SDS011;7649;52.084;7.478;2022-10-16T06:05:53;3.20;;;2.90;;
15096;SDS011;7649;52.084;7.478;2022-10-16T06:08:22;3.43;;;3.10;;
15096;SDS011;7649;52.084;7.478;2022-10-16T06:10:59;3.17;;;2.80;;
15096;SDS011;7649;52.084;7.478;2022-10-16T06:13:29;6.07;;;2.93;;
15096;SDS011;7649;52.084;7.478;2022-10-16T06:15:57;4.03;;;2.73;;
15096;SDS011;7649;52.084;7.478;2022-10-16T06:18:26;4.53;;;3.00;;
15096;SDS011;7649;52.084;7.478;2022-10-16T06:20:55;4.43;;;3.00;;
15096;SDS011;7649;52.084;7.478;2022-10-16T06:23:23;3.63;;;2.93;;
15096;SDS011;7649;52.084;7.478;2022-10-16T06:25:52;3.30;;;3.00;;
15096;SDS011;7649;52.084;7.478;2022-10-16T06:28:20;3.40;;;2.90;;
15096;SDS011;7649;52.084;7.478;2022-10-16T06:30:50;3.23;;;2.73;;
15096;SDS011;7649;52.084;7.478;2022-10-16T06:33:32;5.03;;;2.63;;
15096;SDS011;7649;52.084;7.478;2022-10-16T06:36:01;2.80;;;2.60;;
15096;SDS011;7649;52.084;7.478;2022-10-16T06:38:29;5.13;;;2.90;;
15096;SDS011;7649;52.084;7.478;2022-10-16T06:40:57;3.17;;;2.87;;
15096;SDS011;7649;52.084;7.478;2022-10-16T06:43:27;6.70;;;3.40;;
15096;SDS011;7649;52.084;7.478;2022-10-16T06:45:59;3.57;;;2.60;;
15096;SDS011;7649;52.084;7.478;2022-10-16T06:48:28;3.97;;;2.80;;
15096;SDS011;7649;52.084;7.478;2022-10-16T06:50:57;3.07;;;2.80;;
15096;SDS011;7649;52.084;7.478;2022-10-16T06:53:26;2.90;;;2.70;;
15096;SDS011;7649;52.084;7.478;2022-10-16T06:56:06;2.63;;;2.43;;
15096;SDS011;7649;52.084;7.478;2022-10-16T06:58:34;2.80;;;2.60;;
15096;SDS011;7649;52.084;7.478;2022-10-16T07:01:04;4.57;;;2.57;;
15096;SDS011;7649;52.084;7.478;2022-10-16T07:03:33;3.37;;;2.70;;
15096;SDS011;7649;52.084;7.478;2022-10-16T07:06:01;2.57;;;2.37;;
15096;SDS011;7649;52.084;7.478;2022-10-16T07:08:30;3.77;;;2.50;;
15096;SDS011;7649;52.084;7.478;2022-10-16T07:10:59;3.00;;;2.67;;
15096;SDS011;7649;52.084;7.478;2022-10-16T07:13:28;2.60;;;2.40;;
15096;SDS011;7649;52.084;7.478;2022-10-16T07:15:56;4.53;;;2.63;;
15096;SDS011;7649;52.084;7.478;2022-10-16T07:18:26;5.57;;;2.57;;
15096;SDS011;7649;52.084;7.478;2022-10-16T07:21:02;3.10;;;2.80;;
15096;SDS011;7649;52.084;7.478;2022-10-16T07:23:30;3.03;;;2.57;;
15096;SDS011;7649;52.084;7.478;2022-10-16T07:25:59;4.63;;;2.80;;
15096;SDS011;7649;52.084;7.478;2022-10-16T07:28:27;3.67;;;2.57;;
15096;SDS011;7649;52.084;7.478;2022-10-16T07:30:55;3.87;;;2.60;;
15096;SDS011;7649;52.084;7.478;2022-10-16T07:33:29;6.30;;;2.80;;
15096;SDS011;7649;52.084;7.478;2022-10-16T07:35:57;6.53;;;2.63;;
15096;SDS011;7649;52.084;7.478;2022-10-16T07:38:26;5.80;;;2.83;;
15096;SDS011;7649;52.084;7.478;2022-10-16T07:40:57;3.47;;;2.40;;
15096;SDS011;7649;52.084;7.478;2022-10-16T07:43:25;6.10;;;2.40;;
15096;SDS011;7649;52.084;7.478;2022-10-16T07:45:54;4.27;;;2.37;;
15096;SDS011;7649;52.084;7.478;2022-10-16T07:48:26;2.90;;;2.60;;
15096;SDS011;7649;52.084;7.478;2022-10-16T07:50:58;2.47;;;2.20;;
15096;SDS011;7649;52.084;7.478;2022-10-16T07:53:26;3.97;;;2.40;;
15096;SDS011;7649;52.084;7.478;2022-10-16T07:55:56;3.97;;;2.10;;
15096;SDS011;7649;52.084;7.478;2022-10-16T07:58:25;4.20;;;2.40;;
15096;SDS011;7649;52.084;7.478;2022-10-16T08:00:54;3.30;;;2.27;;
15096;SDS011;7649;52.084;7.478;2022-10-16T08:03:22;3.60;;;2.10;;
15096;SDS011;7649;52.084;7.478;2022-10-16T08:05:50;3.33;;;2.10;;
15096;SDS011;7649;52.084;7.478;2022-10-16T08:08:20;3.20;;;2.23;;
15096;SDS011;7649;52.084;7.478;2022-10-16T08:10:48;2.30;;;1.80;;
15096;SDS011;7649;52.084;7.478;2022-10-16T08:13:16;2.37;;;2.17;;
15096;SDS011;7649;52.084;7.478;2022-10-16T08:15:45;2.53;;;2.10;;
15096;SDS011;7649;52.084;7.478;2022-10-16T08:18:14;2.97;;;2.23;;
15096;SDS011;7649;52.084;7.478;2022-10-16T08:20:42;4.57;;;2.60;;
15096;SDS011;7649;52.084;7.478;2022-10-16T08:23:11;5.27;;;2.23;;
15096;SDS011;7649;52.084;7.478;2022-10-16T08:25:41;2.67;;;1.70;;
15096;SDS011;7649;52.084;7.478;2022-10-16T08:28:10;2.40;;;1.87;;
15096;SDS011;7649;52.084;7.478;2022-10-16T08:30:38;4.97;;;2.10;;
15096;SDS011;7649;52.084;7.478;2022-10-16T08:33:06;7.27;;;2.40;;
15096;SDS011;7649;52.084;7.478;2022-10-16T08:35:34;3.73;;;2.10;;
15096;SDS011;7649;52.084;7.478;2022-10-16T08:38:03;6.17;;;2.13;;
15096;SDS011;7649;52.084;7.478;2022-10-16T08:40:32;2.93;;;1.87;;
15096;SDS011;7649;52.084;7.478;2022-10-16T08:43:06;5.40;;;1.93;;
15096;SDS011;7649;52.084;7.478;2022-10-16T08:45:40;4.33;;;1.93;;
15096;SDS011;7649;52.084;7.478;2022-10-16T08:48:14;2.47;;;1.50;;
15096;SDS011;7649;52.084;7.478;2022-10-16T08:50:45;2.10;;;1.90;;
15096;SDS011;7649;52.084;7.478;2022-10-16T08:53:17;3.97;;;2.10;;
15096;SDS011;7649;52.084;7.478;2022-10-16T08:55:46;2.17;;;1.60;;
15096;SDS011;7649;52.084;7.478;2022-10-16T08:58:18;5.13;;;2.10;;
15096;SDS011;7649;52.084;7.478;2022-10-16T09:00:47;3.25;;;1.98;;
15096;SDS011;7649;52.084;7.478;2022-10-16T09:03:17;3.22;;;1.75;;
15096;SDS011;7649;52.084;7.478;2022-10-16T09:05:52;2.13;;;1.70;;
15096;SDS011;7649;52.084;7.478;2022-10-16T09:08:27;6.55;;;2.05;;
15096;SDS011;7649;52.084;7.478;2022-10-16T09:10:57;3.83;;;1.40;;
15096;SDS011;7649;52.084;7.478;2022-10-16T09:13:29;2.42;;;1.40;;
15096;SDS011;7649;52.084;7.478;2022-10-16T09:16:00;4.13;;;1.55;;
15096;SDS011;7649;52.084;7.478;2022-10-16T09:18:30;5.72;;;1.50;;
15096;SDS011;7649;52.084;7.478;2022-10-16T09:21:04;4.88;;;1.83;;
15096;SDS011;7649;52.084;7.478;2022-10-16T09:23:36;4.47;;;1.92;;
15096;SDS011;7649;52.084;7.478;2022-10-16T09:26:05;4.18;;;1.83;;
15096;SDS011;7649;52.084;7.478;2022-10-16T09:28:35;4.90;;;1.83;;
15096;SDS011;7649;52.084;7.478;2022-10-16T09:31:04;4.78;;;1.73;;
15096;SDS011;7649;52.084;7.478;2022-10-16T09:33:33;4.85;;;1.80;;
15096;SDS011;7649;52.084;7.478;2022-10-16T09:36:03;4.10;;;1.55;;
15096;SDS011;7649;52.084;7.478;2022-10-16T09:38:33;2.38;;;1.33;;
15096;SDS011;7649;52.084;7.478;2022-10-16T09:41:02;2.28;;;1.30;;
15096;SDS011;7649;52.084;7.478;2022-10-16T09:43:33;4.20;;;1.50;;
15096;SDS011;7649;52.084;7.478;2022-10-16T09:46:04;3.80;;;1.75;;
15096;SDS011;7649;52.084;7.478;2022-10-16T09:48:34;3.65;;;2.17;;
15096;SDS011;7649;52.084;7.478;2022-10-16T09:51:04;3.30;;;1.60;;
15096;SDS011;7649;52.084;7.478;2022-10-16T09:53:40;2.50;;;1.35;;
15096;SDS011;7649;52.084;7.478;2022-10-16T09:56:09;3.58;;;1.95;;
15096;SDS011;7649;52.084;7.478;2022-10-16T09:58:43;2.83;;;1.77;;
15096;SDS011;7649;52.084;7.478;2022-10-16T10:01:14;4.55;;;1.90;;
15096;SDS011;7649;52.084;7.478;2022-10-16T10:03:43;4.40;;;1.52;;
15096;SDS011;7649;52.084;7.478;2022-10-16T10:06:21;4.38;;;1.60;;
15096;SDS011;7649;52.084;7.478;2022-10-16T10:11:37;4.65;;;1.85;;
15096;SDS011;7649;52.084;7.478;2022-10-16T10:14:08;5.35;;;2.38;;
15096;SDS011;7649;52.084;7.478;2022-10-16T10:16:42;3.28;;;2.30;;
15096;SDS011;7649;52.084;7.478;2022-10-16T10:19:13;5.78;;;2.17;;
15096;SDS011;7649;52.084;7.478;2022-10-16T10:21:42;6.40;;;2.63;;
15096;SDS011;7649;52.084;7.478;2022-10-16T10:24:11;5.55;;;2.78;;
15096;SDS011;7649;52.084;7.478;2022-10-16T10:26:40;7.03;;;3.25;;
15096;SDS011;7649;52.084;7.478;2022-10-16T10:29:15;6.63;;;3.22;;
15096;SDS011;7649;52.084;7.478;2022-10-16T10:31:47;4.65;;;3.33;;
15096;SDS011;7649;52.084;7.478;2022-10-16T10:34:22;5.07;;;3.25;;
15096;SDS011;7649;52.084;7.478;2022-10-16T10:36:53;5.53;;;3.00;;
15096;SDS011;7649;52.084;7.478;2022-10-16T10:39:25;4.93;;;2.92;;
15096;SDS011;7649;52.084;7.478;2022-10-16T10:44:52;3.50;;;2.67;;
15096;SDS011;7649;52.084;7.478;2022-10-16T10:47:26;6.10;;;2.85;;
15096;SDS011;7649;52.084;7.478;2022-10-16T10:50:00;2.72;;;2.35;;
15096;SDS011;7649;52.084;7.478;2022-10-16T10:52:34;4.15;;;2.42;;
15096;SDS011;7649;52.084;7.478;2022-10-16T10:55:10;3.30;;;2.35;;
15096;SDS011;7649;52.084;7.478;2022-10-16T10:57:44;2.40;;;2.20;;
15096;SDS011;7649;52.084;7.478;2022-10-16T11:00:17;2.80;;;1.83;;
15096;SDS011;7649;52.084;7.478;2022-10-16T11:02:50;2.75;;;1.98;;
15096;SDS011;7649;52.084;7.478;2022-10-16T11:05:32;2.70;;;1.50;;
15096;SDS011;7649;52.084;7.478;2022-10-16T11:08:04;4.75;;;1.88;;
15096;SDS011;7649;52.084;7.478;2022-10-16T11:10:38;3.60;;;1.92;;
15096;SDS011;7649;52.084;7.478;2022-10-16T11:13:09;4.47;;;1.98;;
15096;SDS011;7649;52.084;7.478;2022-10-16T11:15:39;5.00;;;1.50;;
15096;SDS011;7649;52.084;7.478;2022-10-16T11:18:11;3.55;;;1.70;;
15096;SDS011;7649;52.084;7.478;2022-10-16T11:20:42;5.43;;;1.88;;
15096;SDS011;7649;52.084;7.478;2022-10-16T11:23:14;4.15;;;1.48;;
15096;SDS011;7649;52.084;7.478;2022-10-16T11:25:44;2.80;;;1.30;;
15096;SDS011;7649;52.084;7.478;2022-10-16T11:28:14;4.20;;;1.58;;
15096;SDS011;7649;52.084;7.478;2022-10-16T11:30:44;3.40;;;1.80;;
15096;SDS011;7649;52.084;7.478;2022-10-16T11:33:22;6.80;;;2.33;;
15096;SDS011;7649;52.084;7.478;2022-10-16T11:35:52;3.40;;;1.55;;
15096;SDS011;7649;52.084;7.478;2022-10-16T11:38:23;3.20;;;1.67;;
15096;SDS011;7649;52.084;7.478;2022-10-16T11:40:54;4.75;;;1.85;;
15096;SDS011;7649;52.084;7.478;2022-10-16T11:43:25;1.83;;;1.30;;
15096;SDS011;7649;52.084;7.478;2022-10-16T11:45:55;4.18;;;1.75;;
15096;SDS011;7649;52.084;7.478;2022-10-16T11:48:27;3.63;;;1.52;;
15096;SDS011;7649;52.084;7.478;2022-10-16T11:50:59;3.75;;;1.73;;
15096;SDS011;7649;52.084;7.478;2022-10-16T11:53:33;4.88;;;2.00;;
15096;SDS011;7649;52.084;7.478;2022-10-16T11:56:03;5.45;;;1.80;;
15096;SDS011;7649;52.084;7.478;2022-10-16T11:58:33;3.10;;;2.03;;
15096;SDS011;7649;52.084;7.478;2022-10-16T12:01:05;4.50;;;1.75;;
15096;SDS011;7649;52.084;7.478;2022-10-16T12:03:40;4.88;;;1.52;;
15096;SDS011;7649;52.084;7.478;2022-10-16T12:06:17;3.17;;;1.50;;
15096;SDS011;7649;52.084;7.478;2022-10-16T12:08:49;6.40;;;1.98;;
15096;SDS011;7649;52.084;7.478;2022-10-16T12:11:23;5.35;;;1.92;;
15096;SDS011;7649;52.084;7.478;2022-10-16T12:13:52;5.63;;;1.63;;
15096;SDS011;7649;52.084;7.478;2022-10-16T12:16:21;3.25;;;1.67;;
15096;SDS011;7649;52.084;7.478;2022-10-16T12:19:02;7.82;;;2.00;;
15096;SDS011;7649;52.084;7.478;2022-10-16T12:21:30;4.13;;;1.58;;
15096;SDS011;7649;52.084;7.478;2022-10-16T12:24:00;5.45;;;1.92;;
15096;SDS011;7649;52.084;7.478;2022-10-16T12:26:31;5.57;;;1.70;;
15096;SDS011;7649;52.084;7.478;2022-10-16T12:29:09;6.45;;;1.75;;
15096;SDS011;7649;52.084;7.478;2022-10-16T12:31:43;4.97;;;2.05;;
15096;SDS011;7649;52.084;7.478;2022-10-16T12:34:26;6.07;;;2.20;;
15096;SDS011;7649;52.084;7.478;2022-10-16T12:36:55;4.60;;;2.45;;
15096;SDS011;7649;52.084;7.478;2022-10-16T12:39:24;3.78;;;1.65;;
15096;SDS011;7649;52.084;7.478;2022-10-16T12:42:02;6.28;;;2.15;;
15096;SDS011;7649;52.084;7.478;2022-10-16T12:44:32;4.72;;;2.00;;
15096;SDS011;7649;52.084;7.478;2022-10-16T12:47:00;6.75;;;1.88;;
15096;SDS011;7649;52.084;7.478;2022-10-16T12:49:31;5.97;;;2.13;;
15096;SDS011;7649;52.084;7.478;2022-10-16T12:52:00;3.33;;;1.85;;
15096;SDS011;7649;52.084;7.478;2022-10-16T12:54:29;4.18;;;2.10;;
15096;SDS011;7649;52.084;7.478;2022-10-16T12:57:08;4.93;;;2.15;;
15096;SDS011;7649;52.084;7.478;2022-10-16T12:59:39;4.10;;;1.60;;
15096;SDS011;7649;52.084;7.478;2022-10-16T13:02:16;5.45;;;1.75;;
15096;SDS011;7649;52.084;7.478;2022-10-16T13:04:51;6.50;;;2.08;;
15096;SDS011;7649;52.084;7.478;2022-10-16T13:07:32;5.03;;;2.10;;
15096;SDS011;7649;52.084;7.478;2022-10-16T13:10:07;7.05;;;2.05;;
15096;SDS011;7649;52.084;7.478;2022-10-16T13:12:46;5.10;;;1.98;;
15096;SDS011;7649;52.084;7.478;2022-10-16T13:15:26;6.50;;;2.05;;
15096;SDS011;7649;52.084;7.478;2022-10-16T13:18:00;6.82;;;2.30;;
15096;SDS011;7649;52.084;7.478;2022-10-16T13:20:33;5.05;;;1.77;;
15096;SDS011;7649;52.084;7.478;2022-10-16T13:23:05;4.70;;;1.67;;
15096;SDS011;7649;52.084;7.478;2022-10-16T13:25:40;3.70;;;1.60;;
15096;SDS011;7649;52.084;7.478;2022-10-16T13:28:11;5.18;;;2.20;;
15096;SDS011;7649;52.084;7.478;2022-10-16T13:30:40;5.18;;;2.13;;
15096;SDS011;7649;52.084;7.478;2022-10-16T13:33:13;5.40;;;2.17;;
15096;SDS011;7649;52.084;7.478;2022-10-16T13:35:50;4.28;;;1.73;;
15096;SDS011;7649;52.084;7.478;2022-10-16T13:38:19;7.20;;;2.25;;
15096;SDS011;7649;52.084;7.478;2022-10-16T13:40:49;6.93;;;1.70;;
15096;SDS011;7649;52.084;7.478;2022-10-16T13:43:17;6.63;;;1.95;;
15096;SDS011;7649;52.084;7.478;2022-10-16T13:45:53;5.18;;;1.95;;
15096;SDS011;7649;52.084;7.478;2022-10-16T13:48:22;4.78;;;1.60;;
15096;SDS011;7649;52.084;7.478;2022-10-16T13:51:02;6.63;;;1.88;;
15096;SDS011;7649;52.084;7.478;2022-10-16T13:53:31;5.18;;;2.00;;
15096;SDS011;7649;52.084;7.478;2022-10-16T13:56:00;4.22;;;2.00;;
15096;SDS011;7649;52.084;7.478;2022-10-16T13:58:29;3.97;;;1.35;;
15096;SDS011;7649;52.084;7.478;2022-10-16T14:00:58;5.35;;;1.70;;
15096;SDS011;7649;52.084;7.478;2022-10-16T14:03:27;5.82;;;1.92;;
15096;SDS011;7649;52.084;7.478;2022-10-16T14:05:56;4.68;;;1.90;;
15096;SDS011;7649;52.084;7.478;2022-10-16T14:08:27;3.92;;;1.73;;
15096;SDS011;7649;52.084;7.478;2022-10-16T14:10:56;6.97;;;2.30;;
15096;SDS011;7649;52.084;7.478;2022-10-16T14:13:28;4.57;;;1.80;;
15096;SDS011;7649;52.084;7.478;2022-10-16T14:15:57;3.25;;;1.40;;
15096;SDS011;7649;52.084;7.478;2022-10-16T14:18:27;5.20;;;2.00;;
15096;SDS011;7649;52.084;7.478;2022-10-16T14:21:04;4.38;;;1.60;;
15096;SDS011;7649;52.084;7.478;2022-10-16T14:23:35;4.38;;;1.58;;
15096;SDS011;7649;52.084;7.478;2022-10-16T14:26:14;5.18;;;1.90;;
15096;SDS011;7649;52.084;7.478;2022-10-16T14:28:43;5.55;;;2.05;;
15096;SDS011;7649;52.084;7.478;2022-10-16T14:31:25;3.63;;;1.63;;
15096;SDS011;7649;52.084;7.478;2022-10-16T14:33:54;3.72;;;1.67;;
15096;SDS011;7649;52.084;7.478;2022-10-16T14:36:22;4.10;;;1.70;;
15096;SDS011;7649;52.084;7.478;2022-10-16T14:38:56;7.22;;;1.77;;
15096;SDS011;7649;52.084;7.478;2022-10-16T14:41:26;4.10;;;1.88;;
15096;SDS011;7649;52.084;7.478;2022-10-16T14:43:55;2.40;;;1.25;;
15096;SDS011;7649;52.084;7.478;2022-10-16T14:46:28;6.38;;;2.15;;
15096;SDS011;7649;52.084;7.478;2022-10-16T14:48:59;4.88;;;1.42;;
15096;SDS011;7649;52.084;7.478;2022-10-16T14:51:28;4.03;;;1.70;;
15096;SDS011;7649;52.084;7.478;2022-10-16T14:53:58;4.55;;;1.45;;
15096;SDS011;7649;52.084;7.478;2022-10-16T14:56:29;4.97;;;1.67;;
15096;SDS011;7649;52.084;7.478;2022-10-16T14:58:58;3.90;;;1.60;;
15096;SDS011;7649;52.084;7.478;2022-10-16T15:01:27;4.10;;;1.52;;
15096;SDS011;7649;52.084;7.478;2022-10-16T15:03:55;5.40;;;1.60;;
15096;SDS011;7649;52.084;7.478;2022-10-16T15:06:23;3.60;;;1.75;;
15096;SDS011;7649;52.084;7.478;2022-10-16T15:08:51;4.05;;;1.67;;
15096;SDS011;7649;52.084;7.478;2022-10-16T15:11:21;2.80;;;1.20;;
15096;SDS011;7649;52.084;7.478;2022-10-16T15:13:49;4.15;;;1.45;;
15096;SDS011;7649;52.084;7.478;2022-10-16T15:16:18;4.45;;;1.90;;
15096;SDS011;7649;52.084;7.478;2022-10-16T15:18:46;3.60;;;1.60;;
15096;SDS011;7649;52.084;7.478;2022-10-16T15:21:17;4.38;;;1.67;;
15096;SDS011;7649;52.084;7.478;2022-10-16T15:23:49;6.90;;;1.80;;
15096;SDS011;7649;52.084;7.478;2022-10-16T15:26:18;4.07;;;1.80;;
15096;SDS011;7649;52.084;7.478;2022-10-16T15:28:48;4.70;;;2.10;;